sensor_id;sensor_type;location;lat;lon;timestamp;temperature;humidity
77277;DHT22;66330;52.166;9.978;2023-03-30T00:01:02;12.60;68.10
77277;DHT22;66330;52.166;9.978;2023-03-30T00:03:28;13.10;69.40
77277;DHT22;66330;52.166;9.978;2023-03-30T00:05:55;13.10;69.30
77277;DHT22;66330;52.166;9.978;2023-03-30T00:08:22;13.10;69.30
77277;DHT22;66330;52.166;9.978;2023-03-30T00:11:02;13.10;69.10
77277;DHT22;66330;52.166;9.978;2023-03-30T00:13:28;13.10;70.00
77277;DHT22;66330;52.166;9.978;2023-03-30T00:15:54;13.10;69.10
77277;DHT22;66330;52.166;9.978;2023-03-30T00:18:20;13.30;69.20
77277;DHT22;66330;52.166;9.978;2023-03-30T00:20:49;13.10;68.70
77277;DHT22;66330;52.166;9.978;2023-03-30T00:23:15;13.10;69.00
77277;DHT22;66330;52.166;9.978;2023-03-30T00:25:42;13.00;68.60
77277;DHT22;66330;52.166;9.978;2023-03-30T00:28:07;13.10;68.80
77277;DHT22;66330;52.166;9.978;2023-03-30T00:30:33;13.10;69.30
77277;DHT22;66330;52.166;9.978;2023-03-30T00:32:59;13.10;69.40
77277;DHT22;66330;52.166;9.978;2023-03-30T00:35:24;13.10;69.00
77277;DHT22;66330;52.166;9.978;2023-03-30T00:37:51;13.10;69.40
77277;DHT22;66330;52.166;9.978;2023-03-30T00:40:19;13.10;69.40
77277;DHT22;66330;52.166;9.978;2023-03-30T00:42:45;13.20;69.50
77277;DHT22;66330;52.166;9.978;2023-03-30T00:45:19;13.30;69.60
77277;DHT22;66330;52.166;9.978;2023-03-30T00:48:34;13.10;68.80
77277;DHT22;66330;52.166;9.978;2023-03-30T00:50:59;13.10;69.20
77277;DHT22;66330;52.166;9.978;2023-03-30T00:53:36;13.10;69.50
77277;DHT22;66330;52.166;9.978;2023-03-30T00:56:05;13.10;69.20
77277;DHT22;66330;52.166;9.978;2023-03-30T00:58:32;13.10;69.50
77277;DHT22;66330;52.166;9.978;2023-03-30T01:01:00;13.10;69.50
77277;DHT22;66330;52.166;9.978;2023-03-30T01:03:30;13.10;69.20
77277;DHT22;66330;52.166;9.978;2023-03-30T01:05:58;13.10;69.30
77277;DHT22;66330;52.166;9.978;2023-03-30T01:08:26;13.10;69.60
77277;DHT22;66330;52.166;9.978;2023-03-30T01:10:57;13.20;69.40
77277;DHT22;66330;52.166;9.978;2023-03-30T01:13:26;13.20;69.80
77277;DHT22;66330;52.166;9.978;2023-03-30T01:16:08;13.20;69.30
77277;DHT22;66330;52.166;9.978;2023-03-30T01:32:44;13.30;69.40
77277;DHT22;66330;52.166;9.978;2023-03-30T01:35:32;13.30;69.50
77277;DHT22;66330;52.166;9.978;2023-03-30T01:40:41;13.80;69.80
77277;DHT22;66330;52.166;9.978;2023-03-30T01:43:19;13.30;69.20
77277;DHT22;66330;52.166;9.978;2023-03-30T01:45:58;13.30;68.90
77277;DHT22;66330;52.166;9.978;2023-03-30T01:48:40;13.20;68.90
77277;DHT22;66330;52.166;9.978;2023-03-30T01:51:15;13.10;68.90
77277;DHT22;66330;52.166;9.978;2023-03-30T01:53:58;13.20;68.50
77277;DHT22;66330;52.166;9.978;2023-03-30T01:59:17;13.00;69.20
77277;DHT22;66330;52.166;9.978;2023-03-30T02:01:46;13.20;68.90
77277;DHT22;66330;52.166;9.978;2023-03-30T02:04:17;13.00;69.40
77277;DHT22;66330;52.166;9.978;2023-03-30T02:06:53;13.00;69.60
77277;DHT22;66330;52.166;9.978;2023-03-30T02:09:21;12.90;69.60
77277;DHT22;66330;52.166;9.978;2023-03-30T02:11:50;12.90;69.60
77277;DHT22;66330;52.166;9.978;2023-03-30T02:14:20;12.90;69.80
77277;DHT22;66330;52.166;9.978;2023-03-30T02:16:49;12.80;69.60
77277;DHT22;66330;52.166;9.978;2023-03-30T02:19:16;12.80;69.60
77277;DHT22;66330;52.166;9.978;2023-03-30T02:21:42;12.80;69.90
77277;DHT22;66330;52.166;9.978;2023-03-30T02:24:14;12.80;69.30
77277;DHT22;66330;52.166;9.978;2023-03-30T02:26:48;12.80;70.20
77277;DHT22;66330;52.166;9.978;2023-03-30T02:29:15;12.80;69.60
77277;DHT22;66330;52.166;9.978;2023-03-30T02:31:45;12.80;70.10
77277;DHT22;66330;52.166;9.978;2023-03-30T02:37:39;12.80;69.60
77277;DHT22;66330;52.166;9.978;2023-03-30T02:45:59;12.80;70.30
77277;DHT22;66330;52.166;9.978;2023-03-30T02:48:39;12.80;69.60
77277;DHT22;66330;52.166;9.978;2023-03-30T02:54:07;12.80;70.20
77277;DHT22;66330;52.166;9.978;2023-03-30T02:56:46;12.90;69.60
77277;DHT22;66330;52.166;9.978;2023-03-30T02:59:19;12.90;70.30
77277;DHT22;66330;52.166;9.978;2023-03-30T03:02:03;12.90;70.10
77277;DHT22;66330;52.166;9.978;2023-03-30T03:04:30;12.90;70.00
77277;DHT22;66330;52.166;9.978;2023-03-30T03:06:59;13.00;69.90
77277;DHT22;66330;52.166;9.978;2023-03-30T03:09:27;13.00;69.60
77277;DHT22;66330;52.166;9.978;2023-03-30T03:11:54;13.00;69.50
77277;DHT22;66330;52.166;9.978;2023-03-30T03:14:19;13.00;69.70
77277;DHT22;66330;52.166;9.978;2023-03-30T03:16:45;13.10;69.40
77277;DHT22;66330;52.166;9.978;2023-03-30T03:19:11;13.10;68.80
77277;DHT22;66330;52.166;9.978;2023-03-30T03:21:36;13.00;69.10
77277;DHT22;66330;52.166;9.978;2023-03-30T03:24:03;13.20;69.10
77277;DHT22;66330;52.166;9.978;2023-03-30T03:26:29;13.30;69.10
77277;DHT22;66330;52.166;9.978;2023-03-30T03:28:55;13.30;68.80
77277;DHT22;66330;52.166;9.978;2023-03-30T03:31:20;13.40;68.60
77277;DHT22;66330;52.166;9.978;2023-03-30T03:33:46;13.40;68.30
77277;DHT22;66330;52.166;9.978;2023-03-30T03:36:12;13.50;68.10
77277;DHT22;66330;52.166;9.978;2023-03-30T03:38:38;13.80;68.10
77277;DHT22;66330;52.166;9.978;2023-03-30T03:41:03;13.60;67.40
77277;DHT22;66330;52.166;9.978;2023-03-30T03:43:29;14.10;67.50
77277;DHT22;66330;52.166;9.978;2023-03-30T03:45:55;13.70;66.20
77277;DHT22;66330;52.166;9.978;2023-03-30T03:48:22;13.80;66.40
77277;DHT22;66330;52.166;9.978;2023-03-30T03:50:51;13.90;66.00
77277;DHT22;66330;52.166;9.978;2023-03-30T03:53:17;13.90;65.70
77277;DHT22;66330;52.166;9.978;2023-03-30T03:55:43;13.90;65.10
77277;DHT22;66330;52.166;9.978;2023-03-30T03:58:09;14.00;65.00
77277;DHT22;66330;52.166;9.978;2023-03-30T04:00:35;14.00;64.30
77277;DHT22;66330;52.166;9.978;2023-03-30T04:03:00;14.10;64.40
77277;DHT22;66330;52.166;9.978;2023-03-30T04:05:26;14.10;63.50
77277;DHT22;66330;52.166;9.978;2023-03-30T04:07:52;14.30;63.80
77277;DHT22;66330;52.166;9.978;2023-03-30T04:10:19;14.20;63.50
77277;DHT22;66330;52.166;9.978;2023-03-30T04:12:45;14.30;63.40
77277;DHT22;66330;52.166;9.978;2023-03-30T04:15:11;14.10;63.00
77277;DHT22;66330;52.166;9.978;2023-03-30T04:17:37;14.30;63.10
77277;DHT22;66330;52.166;9.978;2023-03-30T04:20:03;14.30;63.10
77277;DHT22;66330;52.166;9.978;2023-03-30T04:22:31;14.50;63.20
77277;DHT22;66330;52.166;9.978;2023-03-30T04:25:11;14.50;63.20
77277;DHT22;66330;52.166;9.978;2023-03-30T04:27:40;14.30;62.60
77277;DHT22;66330;52.166;9.978;2023-03-30T04:30:08;14.20;62.60
77277;DHT22;66330;52.166;9.978;2023-03-30T04:32:34;14.20;62.30
77277;DHT22;66330;52.166;9.978;2023-03-30T04:35:04;14.10;62.70
77277;DHT22;66330;52.166;9.978;2023-03-30T04:37:30;14.20;62.90
77277;DHT22;66330;52.166;9.978;2023-03-30T04:39:57;14.20;62.40
77277;DHT22;66330;52.166;9.978;2023-03-30T04:42:23;14.10;62.70
77277;DHT22;66330;52.166;9.978;2023-03-30T04:44:55;14.20;62.50
77277;DHT22;66330;52.166;9.978;2023-03-30T04:47:20;14.10;62.60
77277;DHT22;66330;52.166;9.978;2023-03-30T04:49:46;14.10;62.50
77277;DHT22;66330;52.166;9.978;2023-03-30T04:52:11;14.10;62.50
77277;DHT22;66330;52.166;9.978;2023-03-30T04:54:37;14.10;62.10
77277;DHT22;66330;52.166;9.978;2023-03-30T04:57:02;14.10;62.60
77277;DHT22;66330;52.166;9.978;2023-03-30T04:59:28;14.00;62.30
77277;DHT22;66330;52.166;9.978;2023-03-30T05:01:53;14.00;62.00
77277;DHT22;66330;52.166;9.978;2023-03-30T05:04:19;14.00;62.40
77277;DHT22;66330;52.166;9.978;2023-03-30T05:06:45;14.00;62.00
77277;DHT22;66330;52.166;9.978;2023-03-30T05:09:14;14.00;62.00
77277;DHT22;66330;52.166;9.978;2023-03-30T05:11:39;14.00;62.10
77277;DHT22;66330;52.166;9.978;2023-03-30T05:14:05;14.00;62.40
77277;DHT22;66330;52.166;9.978;2023-03-30T05:16:31;14.00;62.50
77277;DHT22;66330;52.166;9.978;2023-03-30T05:18:57;14.00;62.00
77277;DHT22;66330;52.166;9.978;2023-03-30T05:21:22;14.00;62.50
77277;DHT22;66330;52.166;9.978;2023-03-30T05:23:48;14.00;62.50
77277;DHT22;66330;52.166;9.978;2023-03-30T05:26:13;14.00;62.50
77277;DHT22;66330;52.166;9.978;2023-03-30T05:28:39;14.00;62.40
77277;DHT22;66330;52.166;9.978;2023-03-30T05:31:05;14.00;62.40
77277;DHT22;66330;52.166;9.978;2023-03-30T05:33:31;13.90;61.70
77277;DHT22;66330;52.166;9.978;2023-03-30T05:35:56;13.90;62.20
77277;DHT22;66330;52.166;9.978;2023-03-30T05:38:22;13.80;62.30
77277;DHT22;66330;52.166;9.978;2023-03-30T05:40:51;13.80;62.50
77277;DHT22;66330;52.166;9.978;2023-03-30T05:43:17;13.80;62.10
77277;DHT22;66330;52.166;9.978;2023-03-30T05:45:43;13.80;62.30
77277;DHT22;66330;52.166;9.978;2023-03-30T05:48:08;13.80;62.10
77277;DHT22;66330;52.166;9.978;2023-03-30T05:50:34;13.90;62.90
77277;DHT22;66330;52.166;9.978;2023-03-30T05:53:00;14.10;62.60
77277;DHT22;66330;52.166;9.978;2023-03-30T05:55:27;14.20;62.10
77277;DHT22;66330;52.166;9.978;2023-03-30T05:57:52;14.20;61.70
77277;DHT22;66330;52.166;9.978;2023-03-30T06:00:19;14.20;61.60
77277;DHT22;66330;52.166;9.978;2023-03-30T06:02:45;14.30;61.10
77277;DHT22;66330;52.166;9.978;2023-03-30T06:05:11;14.30;61.60
77277;DHT22;66330;52.166;9.978;2023-03-30T06:07:37;14.30;60.70
77277;DHT22;66330;52.166;9.978;2023-03-30T06:10:05;14.30;61.00
77277;DHT22;66330;52.166;9.978;2023-03-30T06:12:32;14.40;61.30
77277;DHT22;66330;52.166;9.978;2023-03-30T06:14:58;14.40;60.60
77277;DHT22;66330;52.166;9.978;2023-03-30T06:17:27;14.50;61.00
77277;DHT22;66330;52.166;9.978;2023-03-30T06:19:52;14.50;60.90
77277;DHT22;66330;52.166;9.978;2023-03-30T06:22:18;14.70;60.90
77277;DHT22;66330;52.166;9.978;2023-03-30T06:24:45;14.70;60.40
77277;DHT22;66330;52.166;9.978;2023-03-30T06:27:11;14.70;60.30
77277;DHT22;66330;52.166;9.978;2023-03-30T06:29:37;14.80;60.20
77277;DHT22;66330;52.166;9.978;2023-03-30T06:32:02;14.80;60.00
77277;DHT22;66330;52.166;9.978;2023-03-30T06:34:29;14.90;59.80
77277;DHT22;66330;52.166;9.978;2023-03-30T06:36:54;15.00;60.00
77277;DHT22;66330;52.166;9.978;2023-03-30T06:39:20;15.00;59.80
77277;DHT22;66330;52.166;9.978;2023-03-30T06:41:46;15.10;59.60
77277;DHT22;66330;52.166;9.978;2023-03-30T06:44:12;15.10;59.10
77277;DHT22;66330;52.166;9.978;2023-03-30T06:46:39;15.20;59.40
77277;DHT22;66330;52.166;9.978;2023-03-30T06:49:05;15.30;59.10
77277;DHT22;66330;52.166;9.978;2023-03-30T06:51:31;15.30;59.10
77277;DHT22;66330;52.166;9.978;2023-03-30T06:54:00;15.40;58.70
77277;DHT22;66330;52.166;9.978;2023-03-30T06:56:26;15.50;59.00
77277;DHT22;66330;52.166;9.978;2023-03-30T06:58:51;15.60;58.70
77277;DHT22;66330;52.166;9.978;2023-03-30T07:01:17;15.70;58.60
77277;DHT22;66330;52.166;9.978;2023-03-30T07:03:43;15.80;58.50
77277;DHT22;66330;52.166;9.978;2023-03-30T07:06:09;15.80;58.40
77277;DHT22;66330;52.166;9.978;2023-03-30T07:08:35;15.90;58.10
77277;DHT22;66330;52.166;9.978;2023-03-30T07:11:02;16.00;57.90
77277;DHT22;66330;52.166;9.978;2023-03-30T07:13:28;16.10;57.70
77277;DHT22;66330;52.166;9.978;2023-03-30T07:15:53;16.20;57.40
77277;DHT22;66330;52.166;9.978;2023-03-30T07:18:19;16.30;57.70
77277;DHT22;66330;52.166;9.978;2023-03-30T07:20:45;16.40;57.20
77277;DHT22;66330;52.166;9.978;2023-03-30T07:23:11;16.50;57.10
77277;DHT22;66330;52.166;9.978;2023-03-30T07:25:37;16.60;56.70
77277;DHT22;66330;52.166;9.978;2023-03-30T07:28:03;16.70;56.70
77277;DHT22;66330;52.166;9.978;2023-03-30T07:30:33;16.80;56.40
77277;DHT22;66330;52.166;9.978;2023-03-30T07:32:59;16.90;56.40
77277;DHT22;66330;52.166;9.978;2023-03-30T07:35:26;16.90;55.90
77277;DHT22;66330;52.166;9.978;2023-03-30T07:37:52;16.90;55.80
77277;DHT22;66330;52.166;9.978;2023-03-30T07:40:19;17.00;55.80
77277;DHT22;66330;52.166;9.978;2023-03-30T07:42:45;17.00;55.40
77277;DHT22;66330;52.166;9.978;2023-03-30T07:45:12;17.10;55.30
77277;DHT22;66330;52.166;9.978;2023-03-30T07:47:38;17.20;55.50
77277;DHT22;66330;52.166;9.978;2023-03-30T07:50:04;17.20;55.30
77277;DHT22;66330;52.166;9.978;2023-03-30T07:52:31;17.30;55.10
77277;DHT22;66330;52.166;9.978;2023-03-30T15:11:56;18.50;52.00
77277;DHT22;66330;52.166;9.978;2023-03-30T15:14:23;18.30;52.00
77277;DHT22;66330;52.166;9.978;2023-03-30T15:16:52;18.20;52.10
77277;DHT22;66330;52.166;9.978;2023-03-30T15:19:27;18.40;52.50
77277;DHT22;66330;52.166;9.978;2023-03-30T15:21:59;18.40;51.80
77277;DHT22;66330;52.166;9.978;2023-03-30T15:24:31;18.40;51.90
77277;DHT22;66330;52.166;9.978;2023-03-30T15:26:59;18.80;52.00
77277;DHT22;66330;52.166;9.978;2023-03-30T15:29:26;19.00;51.60
77277;DHT22;66330;52.166;9.978;2023-03-30T15:32:06;19.30;51.00
77277;DHT22;66330;52.166;9.978;2023-03-30T15:34:36;19.30;50.30
77277;DHT22;66330;52.166;9.978;2023-03-30T15:37:02;19.00;49.20
77277;DHT22;66330;52.166;9.978;2023-03-30T15:39:30;18.90;49.60
77277;DHT22;66330;52.166;9.978;2023-03-30T15:42:02;18.50;49.50
77277;DHT22;66330;52.166;9.978;2023-03-30T15:44:33;18.20;49.90
77277;DHT22;66330;52.166;9.978;2023-03-30T15:47:00;18.00;50.30
77277;DHT22;66330;52.166;9.978;2023-03-30T15:52:00;17.60;51.20
77277;DHT22;66330;52.166;9.978;2023-03-30T15:54:32;17.40;51.50
77277;DHT22;66330;52.166;9.978;2023-03-30T15:59:42;17.50;52.60
77277;DHT22;66330;52.166;9.978;2023-03-30T16:02:17;16.90;52.00
77277;DHT22;66330;52.166;9.978;2023-03-30T16:04:43;16.60;52.10
77277;DHT22;66330;52.166;9.978;2023-03-30T16:07:20;16.40;52.40
77277;DHT22;66330;52.166;9.978;2023-03-30T16:09:47;16.20;52.90
77277;DHT22;66330;52.166;9.978;2023-03-30T16:12:15;16.00;53.20
77277;DHT22;66330;52.166;9.978;2023-03-30T16:14:41;15.80;53.40
77277;DHT22;66330;52.166;9.978;2023-03-30T16:17:11;15.60;53.60
77277;DHT22;66330;52.166;9.978;2023-03-30T16:19:40;15.50;54.00
77277;DHT22;66330;52.166;9.978;2023-03-30T16:22:07;15.30;53.90
77277;DHT22;66330;52.166;9.978;2023-03-30T16:24:33;15.20;54.20
77277;DHT22;66330;52.166;9.978;2023-03-30T16:26:59;15.10;55.10
77277;DHT22;66330;52.166;9.978;2023-03-30T16:29:25;15.40;56.20
77277;DHT22;66330;52.166;9.978;2023-03-30T16:31:51;14.80;56.90
77277;DHT22;66330;52.166;9.978;2023-03-30T16:34:17;14.30;58.70
77277;DHT22;66330;52.166;9.978;2023-03-30T16:36:43;14.00;59.60
77277;DHT22;66330;52.166;9.978;2023-03-30T16:39:24;13.70;60.70
77277;DHT22;66330;52.166;9.978;2023-03-30T16:41:51;13.50;62.00
77277;DHT22;66330;52.166;9.978;2023-03-30T16:44:18;13.30;62.50
77277;DHT22;66330;52.166;9.978;2023-03-30T16:46:45;13.10;63.30
77277;DHT22;66330;52.166;9.978;2023-03-30T16:49:23;13.00;64.00
77277;DHT22;66330;52.166;9.978;2023-03-30T16:51:50;12.90;64.70
77277;DHT22;66330;52.166;9.978;2023-03-30T16:54:17;12.80;65.00
77277;DHT22;66330;52.166;9.978;2023-03-30T16:56:43;13.30;66.00
77277;DHT22;66330;52.166;9.978;2023-03-30T16:59:23;12.80;65.90
77277;DHT22;66330;52.166;9.978;2023-03-30T17:01:50;12.80;66.00
77277;DHT22;66330;52.166;9.978;2023-03-30T17:04:16;12.80;65.90
77277;DHT22;66330;52.166;9.978;2023-03-30T17:06:42;12.80;66.10
77277;DHT22;66330;52.166;9.978;2023-03-30T17:09:18;12.90;66.50
77277;DHT22;66330;52.166;9.978;2023-03-30T17:11:45;13.50;67.40
77277;DHT22;66330;52.166;9.978;2023-03-30T17:14:11;12.80;66.60
77277;DHT22;66330;52.166;9.978;2023-03-30T17:16:37;13.00;66.80
77277;DHT22;66330;52.166;9.978;2023-03-30T17:19:03;13.20;66.60
77277;DHT22;66330;52.166;9.978;2023-03-30T17:21:28;13.10;66.90
77277;DHT22;66330;52.166;9.978;2023-03-30T17:23:54;13.40;67.50
77277;DHT22;66330;52.166;9.978;2023-03-30T17:26:20;13.60;66.90
77277;DHT22;66330;52.166;9.978;2023-03-30T17:28:46;13.20;66.90
77277;DHT22;66330;52.166;9.978;2023-03-30T17:31:20;13.30;66.80
77277;DHT22;66330;52.166;9.978;2023-03-30T17:33:46;13.30;67.00
77277;DHT22;66330;52.166;9.978;2023-03-30T17:36:22;13.40;66.80
77277;DHT22;66330;52.166;9.978;2023-03-30T17:38:49;13.40;66.70
77277;DHT22;66330;52.166;9.978;2023-03-30T17:41:17;13.40;66.70
77277;DHT22;66330;52.166;9.978;2023-03-30T17:43:44;13.50;66.30
77277;DHT22;66330;52.166;9.978;2023-03-30T17:46:15;13.50;66.80
77277;DHT22;66330;52.166;9.978;2023-03-30T17:48:41;13.90;67.30
77277;DHT22;66330;52.166;9.978;2023-03-30T17:51:07;13.10;66.40
77277;DHT22;66330;52.166;9.978;2023-03-30T17:53:32;13.60;66.90
77277;DHT22;66330;52.166;9.978;2023-03-30T17:55:58;13.60;66.90
77277;DHT22;66330;52.166;9.978;2023-03-30T17:58:29;13.60;66.30
77277;DHT22;66330;52.166;9.978;2023-03-30T18:00:58;13.60;66.80
77277;DHT22;66330;52.166;9.978;2023-03-30T18:03:24;13.70;66.60
77277;DHT22;66330;52.166;9.978;2023-03-30T18:05:51;14.00;67.20
77277;DHT22;66330;52.166;9.978;2023-03-30T18:08:19;14.10;67.30
77277;DHT22;66330;52.166;9.978;2023-03-30T18:10:48;13.50;66.70
77277;DHT22;66330;52.166;9.978;2023-03-30T18:13:15;13.90;67.10
77277;DHT22;66330;52.166;9.978;2023-03-30T18:15:41;13.60;67.10
77277;DHT22;66330;52.166;9.978;2023-03-30T18:18:09;13.40;66.80
77277;DHT22;66330;52.166;9.978;2023-03-30T18:20:41;13.40;66.80
77277;DHT22;66330;52.166;9.978;2023-03-30T18:23:08;13.40;67.00
77277;DHT22;66330;52.166;9.978;2023-03-30T18:25:34;13.50;66.80
77277;DHT22;66330;52.166;9.978;2023-03-30T18:28:00;13.50;66.80
77277;DHT22;66330;52.166;9.978;2023-03-30T18:30:35;13.60;66.50
77277;DHT22;66330;52.166;9.978;2023-03-30T18:33:05;13.60;66.90
77277;DHT22;66330;52.166;9.978;2023-03-30T18:35:33;13.70;66.80
77277;DHT22;66330;52.166;9.978;2023-03-30T18:37:59;13.70;66.70
77277;DHT22;66330;52.166;9.978;2023-03-30T18:42:53;13.80;66.60
77277;DHT22;66330;52.166;9.978;2023-03-30T18:45:24;13.80;66.50
77277;DHT22;66330;52.166;9.978;2023-03-30T18:47:52;13.70;67.10
77277;DHT22;66330;52.166;9.978;2023-03-30T18:50:36;13.40;67.10
77277;DHT22;66330;52.166;9.978;2023-03-30T18:53:04;13.10;68.00
77277;DHT22;66330;52.166;9.978;2023-03-30T18:55:32;12.80;68.10
77277;DHT22;66330;52.166;9.978;2023-03-30T18:57:58;12.70;69.40
77277;DHT22;66330;52.166;9.978;2023-03-30T19:00:26;12.60;69.60
77277;DHT22;66330;52.166;9.978;2023-03-30T19:02:53;12.90;70.60
77277;DHT22;66330;52.166;9.978;2023-03-30T19:05:20;12.40;70.60
77277;DHT22;66330;52.166;9.978;2023-03-30T19:07:47;12.70;71.10
77277;DHT22;66330;52.166;9.978;2023-03-30T19:10:18;12.20;70.80
77277;DHT22;66330;52.166;9.978;2023-03-30T19:12:44;12.40;70.80
77277;DHT22;66330;52.166;9.978;2023-03-30T19:15:21;12.10;71.00
77277;DHT22;66330;52.166;9.978;2023-03-30T19:17:47;12.00;70.70
77277;DHT22;66330;52.166;9.978;2023-03-30T19:20:13;11.90;71.10
77277;DHT22;66330;52.166;9.978;2023-03-30T19:22:39;11.90;71.40
77277;DHT22;66330;52.166;9.978;2023-03-30T19:25:05;11.90;71.60
77277;DHT22;66330;52.166;9.978;2023-03-30T19:27:31;11.90;71.80
77277;DHT22;66330;52.166;9.978;2023-03-30T19:29:56;12.20;72.50
77277;DHT22;66330;52.166;9.978;2023-03-30T19:32:25;12.00;72.20
77277;DHT22;66330;52.166;9.978;2023-03-30T19:34:50;11.90;71.70
77277;DHT22;66330;52.166;9.978;2023-03-30T19:37:16;12.40;72.60
77277;DHT22;66330;52.166;9.978;2023-03-30T19:39:44;12.10;72.30
77277;DHT22;66330;52.166;9.978;2023-03-30T19:42:10;12.20;72.20
77277;DHT22;66330;52.166;9.978;2023-03-30T19:44:36;12.20;72.10
77277;DHT22;66330;52.166;9.978;2023-03-30T19:47:02;12.30;71.70
77277;DHT22;66330;52.166;9.978;2023-03-30T19:49:28;12.90;72.20
77277;DHT22;66330;52.166;9.978;2023-03-30T19:51:53;12.40;72.40
77277;DHT22;66330;52.166;9.978;2023-03-30T19:54:19;12.90;72.10
77277;DHT22;66330;52.166;9.978;2023-03-30T19:56:44;12.50;72.10
77277;DHT22;66330;52.166;9.978;2023-03-30T19:59:10;12.60;72.30
77277;DHT22;66330;52.166;9.978;2023-03-30T20:01:36;12.80;72.70
77277;DHT22;66330;52.166;9.978;2023-03-30T20:04:02;12.50;73.20
77277;DHT22;66330;52.166;9.978;2023-03-30T20:06:27;12.40;73.20
77277;DHT22;66330;52.166;9.978;2023-03-30T20:08:53;12.40;73.60
77277;DHT22;66330;52.166;9.978;2023-03-30T20:11:19;12.40;73.90
77277;DHT22;66330;52.166;9.978;2023-03-30T20:13:47;12.30;74.00
77277;DHT22;66330;52.166;9.978;2023-03-30T20:16:13;12.30;73.90
77277;DHT22;66330;52.166;9.978;2023-03-30T20:18:48;12.30;74.60
77277;DHT22;66330;52.166;9.978;2023-03-30T20:21:16;12.30;74.70
77277;DHT22;66330;52.166;9.978;2023-03-30T20:23:42;12.30;74.60
77277;DHT22;66330;52.166;9.978;2023-03-30T20:26:08;12.30;75.00
77277;DHT22;66330;52.166;9.978;2023-03-30T20:28:33;12.70;75.40
77277;DHT22;66330;52.166;9.978;2023-03-30T20:31:00;12.30;74.80
77277;DHT22;66330;52.166;9.978;2023-03-30T20:33:26;12.30;75.40
77277;DHT22;66330;52.166;9.978;2023-03-30T20:35:52;12.30;75.60
77277;DHT22;66330;52.166;9.978;2023-03-30T20:38:18;12.30;75.40
77277;DHT22;66330;52.166;9.978;2023-03-30T20:40:57;12.30;74.70
77277;DHT22;66330;52.166;9.978;2023-03-30T20:43:24;12.20;74.80
77277;DHT22;66330;52.166;9.978;2023-03-30T20:45:53;12.40;74.80
77277;DHT22;66330;52.166;9.978;2023-03-30T20:48:31;12.70;75.00
77277;DHT22;66330;52.166;9.978;2023-03-30T20:51:09;13.00;75.10
77277;DHT22;66330;52.166;9.978;2023-03-30T20:53:35;12.40;74.00
77277;DHT22;66330;52.166;9.978;2023-03-30T20:56:02;12.70;74.50
77277;DHT22;66330;52.166;9.978;2023-03-30T20:58:29;12.50;74.00
77277;DHT22;66330;52.166;9.978;2023-03-30T21:00:55;12.60;74.00
77277;DHT22;66330;52.166;9.978;2023-03-30T21:03:26;12.60;74.00
77277;DHT22;66330;52.166;9.978;2023-03-30T21:06:01;12.60;73.70
77277;DHT22;66330;52.166;9.978;2023-03-30T21:08:26;12.70;72.90
77277;DHT22;66330;52.166;9.978;2023-03-30T21:10:52;12.60;73.20
77277;DHT22;66330;52.166;9.978;2023-03-30T21:13:17;12.70;73.10
77277;DHT22;66330;52.166;9.978;2023-03-30T21:15:43;12.80;73.00
77277;DHT22;66330;52.166;9.978;2023-03-30T21:18:08;12.80;73.30
77277;DHT22;66330;52.166;9.978;2023-03-30T21:20:34;12.80;73.00
77277;DHT22;66330;52.166;9.978;2023-03-30T21:23:00;12.80;72.70
77277;DHT22;66330;52.166;9.978;2023-03-30T21:25:27;12.90;72.30
77277;DHT22;66330;52.166;9.978;2023-03-30T21:27:52;12.90;72.50
77277;DHT22;66330;52.166;9.978;2023-03-30T21:30:18;13.30;72.70
77277;DHT22;66330;52.166;9.978;2023-03-30T21:32:44;13.00;72.30
77277;DHT22;66330;52.166;9.978;2023-03-30T21:35:09;13.00;72.10
77277;DHT22;66330;52.166;9.978;2023-03-30T21:37:35;13.50;72.60
77277;DHT22;66330;52.166;9.978;2023-03-30T21:40:01;13.10;71.50
77277;DHT22;66330;52.166;9.978;2023-03-30T21:42:26;13.10;71.50
77277;DHT22;66330;52.166;9.978;2023-03-30T21:44:52;13.30;72.00
77277;DHT22;66330;52.166;9.978;2023-03-30T21:47:17;13.20;71.50
77277;DHT22;66330;52.166;9.978;2023-03-30T21:49:43;13.20;71.60
77277;DHT22;66330;52.166;9.978;2023-03-30T21:52:08;13.30;71.80
77277;DHT22;66330;52.166;9.978;2023-03-30T21:54:34;13.30;71.80
77277;DHT22;66330;52.166;9.978;2023-03-30T21:57:00;13.50;72.20
77277;DHT22;66330;52.166;9.978;2023-03-30T21:59:25;13.80;72.50
77277;DHT22;66330;52.166;9.978;2023-03-30T22:01:51;13.10;72.50
77277;DHT22;66330;52.166;9.978;2023-03-30T22:04:16;13.40;73.00
77277;DHT22;66330;52.166;9.978;2023-03-30T22:06:42;13.00;73.40
77277;DHT22;66330;52.166;9.978;2023-03-30T22:09:08;12.90;73.70
77277;DHT22;66330;52.166;9.978;2023-03-30T22:11:33;12.90;74.10
77277;DHT22;66330;52.166;9.978;2023-03-30T22:13:59;12.70;74.20
77277;DHT22;66330;52.166;9.978;2023-03-30T22:16:26;12.80;74.20
77277;DHT22;66330;52.166;9.978;2023-03-30T22:18:52;12.80;74.50
77277;DHT22;66330;52.166;9.978;2023-03-30T22:21:24;12.70;74.90
77277;DHT22;66330;52.166;9.978;2023-03-30T22:23:51;12.70;74.50
77277;DHT22;66330;52.166;9.978;2023-03-30T22:26:16;12.70;75.00
77277;DHT22;66330;52.166;9.978;2023-03-30T22:28:42;12.60;75.20
77277;DHT22;66330;52.166;9.978;2023-03-30T22:31:10;12.60;75.50
77277;DHT22;66330;52.166;9.978;2023-03-30T22:33:36;12.60;75.80
77277;DHT22;66330;52.166;9.978;2023-03-30T22:36:03;12.60;75.90
77277;DHT22;66330;52.166;9.978;2023-03-30T22:38:29;12.60;76.00
77277;DHT22;66330;52.166;9.978;2023-03-30T22:41:01;12.60;75.90
77277;DHT22;66330;52.166;9.978;2023-03-30T22:43:27;12.60;75.90
77277;DHT22;66330;52.166;9.978;2023-03-30T22:45:53;12.60;75.50
77277;DHT22;66330;52.166;9.978;2023-03-30T22:48:19;12.60;76.10
77277;DHT22;66330;52.166;9.978;2023-03-30T22:50:44;12.50;76.20
77277;DHT22;66330;52.166;9.978;2023-03-30T22:53:10;12.90;77.00
77277;DHT22;66330;52.166;9.978;2023-03-30T22:55:36;12.30;76.90
77277;DHT22;66330;52.166;9.978;2023-03-30T22:58:01;12.30;77.40
77277;DHT22;66330;52.166;9.978;2023-03-30T23:00:27;12.20;77.50
77277;DHT22;66330;52.166;9.978;2023-03-30T23:02:53;12.10;78.20
77277;DHT22;66330;52.166;9.978;2023-03-30T23:05:19;12.00;78.50
77277;DHT22;66330;52.166;9.978;2023-03-30T23:07:47;12.00;78.10
77277;DHT22;66330;52.166;9.978;2023-03-30T23:10:16;12.00;79.20
77277;DHT22;66330;52.166;9.978;2023-03-30T23:12:42;12.00;79.20
77277;DHT22;66330;52.166;9.978;2023-03-30T23:15:09;11.90;78.90
77277;DHT22;66330;52.166;9.978;2023-03-30T23:17:35;11.90;79.60
77277;DHT22;66330;52.166;9.978;2023-03-30T23:20:01;11.90;79.40
77277;DHT22;66330;52.166;9.978;2023-03-30T23:22:29;11.90;79.60
77277;DHT22;66330;52.166;9.978;2023-03-30T23:24:55;11.90;79.20
77277;DHT22;66330;52.166;9.978;2023-03-30T23:27:21;11.90;79.70
77277;DHT22;66330;52.166;9.978;2023-03-30T23:29:47;11.90;79.60